createdAt,value
2019-05-29T00:00:07.862Z,1002.05
2019-05-29T00:01:09.906Z,1002.09
2019-05-29T00:02:05.946Z,1002.08
2019-05-29T00:03:03.829Z,1002.11
2019-05-29T00:04:02.446Z,1002.12
2019-05-29T00:05:01.109Z,1002.14
2019-05-29T00:05:59.741Z,1002.13
2019-05-29T00:06:58.309Z,1002.15
2019-05-29T00:07:56.880Z,1002.12
2019-05-29T00:08:55.663Z,1002.13
2019-05-29T00:09:54.245Z,1002.14
2019-05-29T00:10:52.863Z,1002.12
2019-05-29T00:11:51.449Z,1002.15
2019-05-29T00:12:50.026Z,1002.13
2019-05-29T00:13:48.575Z,1002.14
2019-05-29T00:14:47.171Z,1002.15
2019-05-29T00:15:45.810Z,1002.15
2019-05-29T00:16:44.340Z,1002.17
2019-05-29T00:17:42.999Z,1002.17
2019-05-29T00:18:41.748Z,1002.19
2019-05-29T00:19:40.293Z,1002.17
2019-05-29T00:20:39.000Z,1002.22
2019-05-29T00:21:37.619Z,1002.2
2019-05-29T00:22:36.185Z,1002.19
2019-05-29T00:23:34.741Z,1002.18
2019-05-29T00:24:33.298Z,1002.23
2019-05-29T00:25:31.888Z,1002.26
2019-05-29T00:26:30.512Z,1002.22
2019-05-29T00:27:29.222Z,1002.26
2019-05-29T00:28:27.896Z,1002.26
2019-05-29T00:29:26.439Z,1002.28
2019-05-29T00:30:25.200Z,1002.29
2019-05-29T00:31:23.781Z,1002.29
2019-05-29T00:32:22.385Z,1002.29
2019-05-29T00:33:20.945Z,1002.29
2019-05-29T00:34:19.497Z,1002.33
2019-05-29T00:35:18.062Z,1002.35
2019-05-29T00:36:16.712Z,1002.36
2019-05-29T00:37:16.651Z,1002.37
2019-05-29T00:38:14.704Z,1002.41
2019-05-29T00:39:12.884Z,1002.38
2019-05-29T00:40:11.427Z,1002.43
2019-05-29T00:41:10.817Z,1002.41
2019-05-29T00:42:08.935Z,1002.45
2019-05-29T00:43:07.380Z,1002.41
2019-05-29T00:44:07.031Z,1002.45
2019-05-29T00:45:04.386Z,1002.45
2019-05-29T00:46:02.985Z,1002.47
2019-05-29T00:47:01.846Z,1002.46
2019-05-29T00:48:00.387Z,1002.48
2019-05-29T00:48:58.963Z,1002.47
2019-05-29T00:49:57.598Z,1002.52
2019-05-29T00:50:56.136Z,1002.46
2019-05-29T00:51:54.819Z,1002.5
2019-05-29T00:52:53.534Z,1002.53
2019-05-29T00:53:52.161Z,1002.53
2019-05-29T00:54:50.891Z,1002.55
2019-05-29T00:55:49.530Z,1002.56
2019-05-29T00:56:48.075Z,1002.57
2019-05-29T00:57:46.654Z,1002.6
2019-05-29T00:58:45.221Z,1002.58
2019-05-29T00:59:43.771Z,1002.61
2019-05-29T01:00:42.346Z,1002.62
2019-05-29T01:01:40.962Z,1002.6
2019-05-29T01:02:39.717Z,1002.66
2019-05-29T01:03:38.280Z,1002.63
2019-05-29T01:04:36.848Z,1002.65
2019-05-29T01:05:35.583Z,1002.62
2019-05-29T01:06:34.148Z,1002.61
2019-05-29T01:07:32.863Z,1002.69
2019-05-29T01:08:31.440Z,1002.64
2019-05-29T01:09:30.038Z,1002.68
2019-05-29T01:10:28.624Z,1002.73
2019-05-29T01:11:27.439Z,1002.75
2019-05-29T01:12:25.996Z,1002.73
2019-05-29T01:13:24.547Z,1002.7
2019-05-29T01:14:23.351Z,1002.72
2019-05-29T01:15:21.888Z,1002.75
2019-05-29T01:16:21.640Z,1002.78
2019-05-29T01:17:19.775Z,1002.78
2019-05-29T01:18:17.858Z,1002.78
2019-05-29T01:19:16.215Z,1002.79
2019-05-29T01:20:15.884Z,1002.8
2019-05-29T01:21:13.800Z,1002.78
2019-05-29T01:22:12.306Z,1002.79
2019-05-29T01:23:10.595Z,1002.81
2019-05-29T01:24:09.486Z,1002.76
2019-05-29T01:25:08.163Z,1002.83
2019-05-29T01:26:06.711Z,1002.81
2019-05-29T01:27:05.293Z,1002.84
2019-05-29T01:28:03.909Z,1002.81
2019-05-29T01:29:02.480Z,1002.78
2019-05-29T01:30:01.163Z,1002.82
2019-05-29T01:30:59.890Z,1002.81
2019-05-29T01:31:58.428Z,1002.82
2019-05-29T01:32:56.975Z,1002.87
2019-05-29T01:33:55.510Z,1002.82
2019-05-29T01:34:54.072Z,1002.86
2019-05-29T01:35:52.846Z,1002.87
2019-05-29T01:36:51.382Z,1002.85
2019-05-29T01:37:49.945Z,1002.87
2019-05-29T01:38:48.517Z,1002.91
2019-05-29T01:39:47.333Z,1002.86
2019-05-29T01:40:46.040Z,1002.88
2019-05-29T01:41:44.591Z,1002.88
2019-05-29T01:42:43.278Z,1002.93
2019-05-29T01:43:41.887Z,1002.9
2019-05-29T01:44:40.441Z,1002.89
2019-05-29T01:45:39.068Z,1002.93
2019-05-29T01:46:37.629Z,1002.92
2019-05-29T01:47:36.192Z,1002.97
2019-05-29T01:48:35.093Z,1002.96
2019-05-29T01:49:33.864Z,1003
2019-05-29T01:50:32.436Z,1002.99
2019-05-29T01:51:31.077Z,1002.98
2019-05-29T01:52:29.672Z,1002.96
2019-05-29T01:53:28.202Z,1003.02
2019-05-29T01:54:27.946Z,1003.01
2019-05-29T01:55:25.858Z,1003.05
2019-05-29T01:56:24.427Z,1003.02
2019-05-29T01:57:23.781Z,1003.04
2019-05-29T01:58:22.004Z,1003.05
2019-05-29T01:59:20.270Z,1003.05
2019-05-29T02:00:20.023Z,1003.07
2019-05-29T02:01:17.990Z,1003.07
2019-05-29T02:02:16.043Z,1003.05
2019-05-29T02:03:15.715Z,1003.07
2019-05-29T02:04:13.256Z,1003.09
2019-05-29T02:05:11.999Z,1003.11
2019-05-29T02:06:10.736Z,1003.07
2019-05-29T02:07:09.582Z,1003.14
2019-05-29T02:08:08.177Z,1003.14
2019-05-29T02:09:06.779Z,1003.11
2019-05-29T02:10:05.450Z,1003.18
2019-05-29T02:11:04.087Z,1003.18
2019-05-29T02:12:02.824Z,1003.23
2019-05-29T02:13:01.463Z,1003.19
2019-05-29T02:14:00.130Z,1003.21
2019-05-29T02:14:58.713Z,1003.27
2019-05-29T02:15:57.432Z,1003.27
2019-05-29T02:16:56.111Z,1003.26
2019-05-29T02:17:54.752Z,1003.26
2019-05-29T02:18:53.409Z,1003.25
2019-05-29T02:19:51.980Z,1003.27
2019-05-29T02:20:50.559Z,1003.33
2019-05-29T02:21:49.124Z,1003.34
2019-05-29T02:22:47.653Z,1003.31
2019-05-29T02:23:46.218Z,1003.3
2019-05-29T02:24:44.799Z,1003.32
2019-05-29T02:25:43.509Z,1003.28
2019-05-29T02:26:42.070Z,1003.33
2019-05-29T02:27:40.643Z,1003.33
2019-05-29T02:28:39.573Z,1003.29
2019-05-29T02:29:38.240Z,1003.35
2019-05-29T02:30:36.834Z,1003.37
2019-05-29T02:31:35.657Z,1003.34
2019-05-29T02:32:34.225Z,1003.34
2019-05-29T02:33:32.807Z,1003.36
2019-05-29T02:34:31.574Z,1003.37
2019-05-29T02:35:30.138Z,1003.36
2019-05-29T02:36:28.781Z,1003.39
2019-05-29T02:37:28.871Z,1003.38
2019-05-29T02:38:27.148Z,1003.42
2019-05-29T02:39:25.569Z,1003.42
2019-05-29T02:40:25.182Z,1003.41
2019-05-29T02:41:23.990Z,1003.43
2019-05-29T02:42:20.947Z,1003.43
2019-05-29T02:43:20.850Z,1003.43
2019-05-29T02:44:19.135Z,1003.51
2019-05-29T02:45:16.446Z,1003.5
2019-05-29T02:46:15.067Z,1003.53
2019-05-29T02:47:13.801Z,1003.56
2019-05-29T02:48:12.339Z,1003.52
2019-05-29T02:49:10.994Z,1003.57
2019-05-29T02:50:09.675Z,1003.54
2019-05-29T02:51:11.954Z,1003.59
2019-05-29T02:52:06.941Z,1003.56
2019-05-29T02:53:05.627Z,1003.6
2019-05-29T02:54:04.245Z,1003.61
2019-05-29T02:55:02.723Z,1003.57
2019-05-29T02:56:01.579Z,1003.64
2019-05-29T02:57:00.189Z,1003.65
2019-05-29T02:57:58.747Z,1003.73
2019-05-29T02:58:57.318Z,1003.65
2019-05-29T02:59:55.918Z,1003.66
2019-05-29T03:00:54.471Z,1003.69
2019-05-29T03:01:53.102Z,1003.72
2019-05-29T03:02:51.705Z,1003.72
2019-05-29T03:03:50.350Z,1003.76
2019-05-29T03:04:49.264Z,1003.71
2019-05-29T03:05:47.920Z,1003.72
2019-05-29T03:06:46.476Z,1003.74
2019-05-29T03:07:45.177Z,1003.72
2019-05-29T03:08:43.723Z,1003.77
2019-05-29T03:09:42.284Z,1003.74
2019-05-29T03:10:40.836Z,1003.79
2019-05-29T03:11:39.399Z,1003.79
2019-05-29T03:12:37.979Z,1003.78
2019-05-29T03:13:36.610Z,1003.8
2019-05-29T03:14:35.391Z,1003.83
2019-05-29T03:15:34.091Z,1003.79
2019-05-29T03:16:34.621Z,1003.78
2019-05-29T03:17:31.892Z,1003.75
2019-05-29T03:18:30.318Z,1003.8
2019-05-29T03:19:30.305Z,1003.85
2019-05-29T03:20:28.150Z,1003.88
2019-05-29T03:21:26.192Z,1003.93
2019-05-29T03:22:26.133Z,1003.9
2019-05-29T03:23:24.178Z,1003.9
2019-05-29T03:24:22.037Z,1003.89
2019-05-29T03:25:20.571Z,1003.94
2019-05-29T03:26:19.113Z,1003.93
2019-05-29T03:27:17.719Z,1003.94
2019-05-29T03:28:16.268Z,1003.97
2019-05-29T03:29:14.837Z,1003.99
2019-05-29T03:30:13.562Z,1003.98
2019-05-29T03:31:12.112Z,1004
2019-05-29T03:32:13.912Z,1004.05
2019-05-29T03:33:09.312Z,1004.03
2019-05-29T03:34:07.913Z,1004.12
2019-05-29T03:35:06.494Z,1004.11
2019-05-29T03:36:05.112Z,1004.1
2019-05-29T03:37:04.493Z,1004.1
2019-05-29T03:38:03.073Z,1004.14
2019-05-29T03:39:01.700Z,1004.15
2019-05-29T03:40:00.349Z,1004.17
2019-05-29T03:40:59.005Z,1004.15
2019-05-29T03:41:57.703Z,1004.17
2019-05-29T03:42:56.281Z,1004.21
2019-05-29T03:43:54.857Z,1004.24
2019-05-29T03:44:53.633Z,1004.24
2019-05-29T03:45:52.188Z,1004.29
2019-05-29T03:46:50.827Z,1004.3
2019-05-29T03:47:49.412Z,1004.2
2019-05-29T03:48:47.979Z,1004.25
2019-05-29T03:49:46.527Z,1004.26
2019-05-29T03:50:45.269Z,1004.3
2019-05-29T03:51:43.843Z,1004.23
2019-05-29T03:52:42.392Z,1004.33
2019-05-29T03:53:40.994Z,1004.31
2019-05-29T03:54:39.927Z,1004.38
2019-05-29T03:55:38.487Z,1004.28
2019-05-29T03:56:38.761Z,1004.38
2019-05-29T03:57:35.922Z,1004.37
2019-05-29T03:58:35.053Z,1004.43
2019-05-29T03:59:35.079Z,1004.4
2019-05-29T04:00:38.514Z,1004.4
2019-05-29T04:01:31.672Z,1004.43
2019-05-29T04:02:28.828Z,1004.39
2019-05-29T04:03:28.899Z,1004.49
2019-05-29T04:04:26.880Z,1004.42
2019-05-29T04:05:24.734Z,1004.51
2019-05-29T04:06:23.302Z,1004.45
2019-05-29T04:07:21.920Z,1004.52
2019-05-29T04:08:20.506Z,1004.46
2019-05-29T04:09:19.246Z,1004.49
2019-05-29T04:10:17.972Z,1004.49
2019-05-29T04:11:16.603Z,1004.49
2019-05-29T04:12:18.680Z,1004.54
2019-05-29T04:13:13.800Z,1004.53
2019-05-29T04:14:12.358Z,1004.57
2019-05-29T04:15:10.899Z,1004.53
2019-05-29T04:16:09.473Z,1004.61
2019-05-29T04:17:08.040Z,1004.54
2019-05-29T04:18:06.579Z,1004.59
2019-05-29T04:19:05.464Z,1004.6
2019-05-29T04:20:04.091Z,1004.68
2019-05-29T04:21:02.890Z,1004.67
2019-05-29T04:22:01.471Z,1004.69
2019-05-29T04:22:59.999Z,1004.71
2019-05-29T04:23:58.542Z,1004.71
2019-05-29T04:24:57.102Z,1004.71
2019-05-29T04:25:55.771Z,1004.74
2019-05-29T04:26:54.686Z,1004.69
2019-05-29T04:27:53.236Z,1004.75
2019-05-29T04:28:51.806Z,1004.76
2019-05-29T04:29:50.381Z,1004.77
2019-05-29T04:30:49.083Z,1004.74
2019-05-29T04:31:47.665Z,1004.8
2019-05-29T04:32:46.195Z,1004.83
2019-05-29T04:33:44.789Z,1004.84
2019-05-29T04:34:43.671Z,1004.84
2019-05-29T04:35:42.247Z,1004.85
2019-05-29T04:36:40.854Z,1004.89
2019-05-29T04:37:40.095Z,1004.91
2019-05-29T04:38:40.284Z,1004.94
2019-05-29T04:39:36.919Z,1004.93
2019-05-29T04:40:37.199Z,1004.98
2019-05-29T04:41:34.687Z,1005
2019-05-29T04:42:33.938Z,1005.03
2019-05-29T04:43:32.859Z,1005.03
2019-05-29T04:44:30.759Z,1005.04
2019-05-29T04:45:29.012Z,1005.03
2019-05-29T04:46:27.273Z,1005.03
2019-05-29T04:47:25.845Z,1005.09
2019-05-29T04:48:24.430Z,1005.11
2019-05-29T04:49:23.012Z,1005.12
2019-05-29T04:50:21.765Z,1005.1
2019-05-29T04:51:20.326Z,1005.13
2019-05-29T04:52:18.892Z,1005.17
2019-05-29T04:53:17.804Z,1005.16
2019-05-29T04:54:16.381Z,1005.14
2019-05-29T04:55:14.993Z,1005.19
2019-05-29T04:56:13.607Z,1005.24
2019-05-29T04:57:12.178Z,1005.2
2019-05-29T04:58:10.782Z,1005.19
2019-05-29T04:59:09.511Z,1005.22
2019-05-29T05:00:08.118Z,1005.24
2019-05-29T05:01:06.707Z,1005.29
2019-05-29T05:02:05.501Z,1005.28
2019-05-29T05:03:04.024Z,1005.3
2019-05-29T05:04:02.670Z,1005.32
2019-05-29T05:05:01.249Z,1005.33
2019-05-29T05:05:59.917Z,1005.3
2019-05-29T05:06:58.461Z,1005.36
2019-05-29T05:07:57.179Z,1005.38
2019-05-29T05:08:55.803Z,1005.39
2019-05-29T05:09:54.393Z,1005.39
2019-05-29T05:10:53.119Z,1005.39
2019-05-29T05:11:51.705Z,1005.36
2019-05-29T05:12:50.278Z,1005.39
2019-05-29T05:13:48.806Z,1005.43
2019-05-29T05:14:47.379Z,1005.43
2019-05-29T05:15:45.937Z,1005.45
2019-05-29T05:17:53.691Z,1005.43
2019-05-29T05:18:52.242Z,1005.46
2019-05-29T05:19:50.923Z,1005.42
2019-05-29T05:20:49.506Z,1005.45
2019-05-29T05:21:48.082Z,1005.46
2019-05-29T05:22:46.680Z,1005.44
2019-05-29T05:23:45.220Z,1005.5
2019-05-29T05:24:44.219Z,1005.52
2019-05-29T05:25:42.505Z,1005.48
2019-05-29T05:26:41.281Z,1005.5
2019-05-29T05:27:40.605Z,1005.51
2019-05-29T05:28:38.671Z,1005.56
2019-05-29T05:29:38.431Z,1005.53
2019-05-29T05:30:36.424Z,1005.6
2019-05-29T05:31:34.961Z,1005.62
2019-05-29T05:32:34.633Z,1005.59
2019-05-29T05:33:32.402Z,1005.61
2019-05-29T05:34:30.561Z,1005.61
2019-05-29T05:35:29.000Z,1005.67
2019-05-29T05:36:27.744Z,1005.68
2019-05-29T05:37:26.286Z,1005.68
2019-05-29T05:38:24.853Z,1005.67
2019-05-29T05:39:23.886Z,1005.66
2019-05-29T05:40:22.167Z,1005.7
2019-05-29T05:41:20.836Z,1005.68
2019-05-29T05:42:19.466Z,1005.77
2019-05-29T05:43:23.934Z,1005.75
2019-05-29T05:44:16.955Z,1005.78
2019-05-29T05:45:15.768Z,1005.76
2019-05-29T05:46:14.335Z,1005.77
2019-05-29T05:47:13.069Z,1005.78
2019-05-29T05:48:11.601Z,1005.81
2019-05-29T05:49:10.165Z,1005.88
2019-05-29T05:50:08.745Z,1005.87
2019-05-29T05:51:07.327Z,1005.89
2019-05-29T05:52:05.991Z,1005.85
2019-05-29T05:53:04.552Z,1005.84
2019-05-29T05:54:03.159Z,1005.91
2019-05-29T05:55:01.975Z,1005.92
2019-05-29T05:56:00.556Z,1005.89
2019-05-29T05:56:59.135Z,1005.92
2019-05-29T05:57:57.737Z,1005.96
2019-05-29T05:58:56.321Z,1005.97
2019-05-29T05:59:54.901Z,1005.98
2019-05-29T06:00:53.588Z,1005.95
2019-05-29T06:01:52.146Z,1005.98
2019-05-29T06:02:52.237Z,1006.05
2019-05-29T06:03:49.291Z,1006.02
2019-05-29T06:04:48.027Z,1006.02
2019-05-29T06:05:46.649Z,1006.07
2019-05-29T06:06:45.314Z,1006.09
2019-05-29T06:07:43.895Z,1006.04
2019-05-29T06:08:42.729Z,1006.07
2019-05-29T06:12:58.346Z,1006.14
2019-05-29T06:13:56.975Z,1006.14
2019-05-29T06:16:32.597Z,1006.17
2019-05-29T06:17:29.856Z,1006.22
2019-05-29T06:18:28.416Z,1006.19
2019-05-29T06:19:27.030Z,1006.17
2019-05-29T06:20:25.592Z,1006.15
2019-05-29T06:21:24.133Z,1006.22
2019-05-29T06:22:22.700Z,1006.22
2019-05-29T06:23:21.454Z,1006.26
2019-05-29T06:25:21.591Z,1006.27
2019-05-29T06:27:29.337Z,1006.25
2019-05-29T06:28:28.119Z,1006.32
2019-05-29T06:29:26.766Z,1006.29
2019-05-29T06:30:25.344Z,1006.26
2019-05-29T06:31:26.988Z,1006.24
2019-05-29T06:32:22.495Z,1006.26
2019-05-29T06:33:21.034Z,1006.27
2019-05-29T06:34:19.557Z,1006.3
2019-05-29T06:36:37.927Z,1006.33
2019-05-29T06:37:35.610Z,1006.29
2019-05-29T06:38:34.066Z,1006.29
2019-05-29T06:39:33.454Z,1006.32
2019-05-29T06:40:31.170Z,1006.29
2019-05-29T06:41:29.720Z,1006.38
2019-05-29T06:42:28.291Z,1006.3
2019-05-29T06:43:26.833Z,1006.38
2019-05-29T06:44:25.535Z,1006.39
2019-05-29T06:45:24.133Z,1006.37
2019-05-29T06:46:22.677Z,1006.36
2019-05-29T06:47:21.628Z,1006.45
2019-05-29T06:48:30.667Z,1006.39
2019-05-29T06:49:18.737Z,1006.38
2019-05-29T06:50:17.282Z,1006.42
2019-05-29T06:51:15.881Z,1006.46
2019-05-29T06:52:14.404Z,1006.44
2019-05-29T06:53:13.112Z,1006.48
2019-05-29T06:54:11.753Z,1006.51
2019-05-29T06:55:10.321Z,1006.49
2019-05-29T06:56:09.314Z,1006.54
2019-05-29T06:57:07.806Z,1006.56
2019-05-29T06:58:06.355Z,1006.55
2019-05-29T06:59:04.974Z,1006.56
2019-05-29T07:00:03.795Z,1006.6
2019-05-29T07:01:02.410Z,1006.6
2019-05-29T07:02:01.064Z,1006.59
2019-05-29T07:02:59.672Z,1006.61
2019-05-29T07:04:10.939Z,1006.63
2019-05-29T07:04:56.882Z,1006.62
2019-05-29T07:05:55.498Z,1006.69
2019-05-29T07:06:54.035Z,1006.67
2019-05-29T07:07:52.617Z,1006.69
2019-05-29T07:08:51.521Z,1006.72
2019-05-29T07:09:50.155Z,1006.7
2019-05-29T07:10:48.745Z,1006.72
2019-05-29T07:11:47.612Z,1006.78
2019-05-29T07:12:46.464Z,1006.79
2019-05-29T07:13:47.461Z,1006.77
2019-05-29T07:14:44.456Z,1006.8
2019-05-29T07:15:42.896Z,1006.81
2019-05-29T07:16:49.456Z,1006.79
2019-05-29T07:17:40.314Z,1006.81
2019-05-29T07:18:38.538Z,1006.8
2019-05-29T07:20:34.891Z,1006.82
2019-05-29T07:21:33.665Z,1006.84
2019-05-29T07:22:32.212Z,1006.88
2019-05-29T07:23:30.737Z,1006.83
2019-05-29T07:24:29.289Z,1006.88
2019-05-29T07:25:27.836Z,1006.9
2019-05-29T07:28:07.987Z,1006.89
2019-05-29T07:29:08.544Z,1006.94
2019-05-29T07:30:05.239Z,1006.97
2019-05-29T07:31:04.102Z,1006.96
2019-05-29T07:32:02.496Z,1006.99
2019-05-29T07:33:01.157Z,1007.01
2019-05-29T07:33:59.741Z,1006.94
2019-05-29T07:35:03.432Z,1006.97
2019-05-29T07:35:56.870Z,1007.02
2019-05-29T07:36:55.423Z,1007.01
2019-05-29T07:37:53.976Z,1007.05
2019-05-29T07:39:02.414Z,1006.99
2019-05-29T07:39:51.066Z,1007.03
2019-05-29T07:40:50.260Z,1007.05
2019-05-29T07:41:48.356Z,1007.02
2019-05-29T07:42:53.163Z,1007.03
2019-05-29T07:43:45.954Z,1007.08
2019-05-29T07:44:44.317Z,1007.1
2019-05-29T07:45:44.038Z,1007.08
2019-05-29T07:46:42.246Z,1007.1
2019-05-29T07:56:23.981Z,1007.18
2019-05-29T07:57:22.518Z,1007.14
2019-05-29T07:58:21.268Z,1007.16
2019-05-29T07:59:20.010Z,1007.19
2019-05-29T08:00:18.564Z,1007.2
2019-05-29T08:01:17.184Z,1007.17
2019-05-29T08:02:15.764Z,1007.2
2019-05-29T08:03:14.319Z,1007.28
2019-05-29T08:04:12.889Z,1007.27
2019-05-29T08:05:11.453Z,1007.26
2019-05-29T08:06:10.030Z,1007.26
2019-05-29T08:07:08.664Z,1007.27
2019-05-29T08:08:07.302Z,1007.26
2019-05-29T08:09:05.909Z,1007.26
2019-05-29T08:10:04.461Z,1007.27
2019-05-29T08:11:03.119Z,1007.26
2019-05-29T08:12:01.876Z,1007.34
2019-05-29T08:13:00.473Z,1007.28
2019-05-29T08:13:59.023Z,1007.26
2019-05-29T08:14:57.621Z,1007.3
2019-05-29T08:16:02.519Z,1007.28
2019-05-29T08:16:54.833Z,1007.3
2019-05-29T08:17:53.403Z,1007.24
2019-05-29T08:18:53.089Z,1007.31
2019-05-29T08:20:02.531Z,1007.33
2019-05-29T08:20:50.317Z,1007.31
2019-05-29T08:21:48.481Z,1007.41
2019-05-29T08:22:46.701Z,1007.37
2019-05-29T08:23:46.319Z,1007.33
2019-05-29T08:24:46.206Z,1007.39
2019-05-29T08:25:43.405Z,1007.35
2019-05-29T08:26:42.737Z,1007.36
2019-05-29T08:27:40.538Z,1007.31
2019-05-29T08:28:38.386Z,1007.35
2019-05-29T08:29:37.166Z,1007.35
2019-05-29T08:30:35.753Z,1007.34
2019-05-29T08:31:34.286Z,1007.33
2019-05-29T08:32:32.971Z,1007.34
2019-05-29T08:33:31.462Z,1007.43
2019-05-29T08:34:30.026Z,1007.41
2019-05-29T08:35:29.147Z,1007.39
2019-05-29T08:36:27.799Z,1007.41
2019-05-29T08:37:26.384Z,1007.42
2019-05-29T08:38:24.993Z,1007.5
2019-05-29T08:39:34.648Z,1007.48
2019-05-29T08:40:22.139Z,1007.46
2019-05-29T08:41:20.802Z,1007.47
2019-05-29T08:42:22.912Z,1007.47
2019-05-29T08:43:18.212Z,1007.49
2019-05-29T08:44:16.763Z,1007.49
2019-05-29T08:45:15.412Z,1007.46
2019-05-29T08:46:14.052Z,1007.49
2019-05-29T08:47:12.565Z,1007.5
2019-05-29T08:48:11.121Z,1007.51
2019-05-29T08:49:09.704Z,1007.54
2019-05-29T08:50:17.834Z,1007.53
2019-05-29T08:51:06.787Z,1007.58
2019-05-29T08:52:11.531Z,1007.53
2019-05-29T08:53:04.143Z,1007.55
2019-05-29T08:54:02.689Z,1007.61
2019-05-29T08:55:01.307Z,1007.58
2019-05-29T08:56:00.012Z,1007.57
2019-05-29T08:56:58.583Z,1007.62
2019-05-29T08:57:57.226Z,1007.6
2019-05-29T08:58:55.873Z,1007.62
2019-05-29T08:59:54.428Z,1007.62
2019-05-29T09:00:55.181Z,1007.66
2019-05-29T09:01:53.573Z,1007.63
2019-05-29T09:02:51.148Z,1007.61
2019-05-29T09:03:48.968Z,1007.58
2019-05-29T09:04:48.464Z,1007.6
2019-05-29T09:05:46.647Z,1007.58
2019-05-29T09:06:44.811Z,1007.64
2019-05-29T09:07:44.320Z,1007.66
2019-05-29T09:08:43.649Z,1007.64
2019-05-29T09:09:40.614Z,1007.68
2019-05-29T09:10:39.481Z,1007.66
2019-05-29T09:11:38.052Z,1007.68
2019-05-29T09:12:36.622Z,1007.71
2019-05-29T09:13:35.479Z,1007.69
2019-05-29T09:14:34.064Z,1007.71
2019-05-29T09:15:32.648Z,1007.73
2019-05-29T09:16:31.300Z,1007.76
2019-05-29T09:17:29.978Z,1007.69
2019-05-29T09:18:28.551Z,1007.74
2019-05-29T09:19:27.465Z,1007.71
2019-05-29T09:20:43.440Z,1007.83
2019-05-29T09:21:26.684Z,1007.75
2019-05-29T09:22:24.044Z,1007.74
2019-05-29T09:23:23.284Z,1007.75
2019-05-29T09:24:21.173Z,1007.73
2019-05-29T09:25:21.031Z,1007.73
2019-05-29T09:26:22.212Z,1007.76
2019-05-29T09:27:17.071Z,1007.78
2019-05-29T09:28:16.475Z,1007.74
2019-05-29T09:29:15.543Z,1007.76
2019-05-29T09:30:13.839Z,1007.83
2019-05-29T09:31:11.344Z,1007.79
2019-05-29T09:32:09.999Z,1007.81
2019-05-29T09:33:08.517Z,1007.79
2019-05-29T09:34:07.227Z,1007.85
2019-05-29T09:35:05.904Z,1007.85
2019-05-29T09:36:04.447Z,1007.93
2019-05-29T09:37:03.362Z,1007.82
2019-05-29T09:38:01.949Z,1007.85
2019-05-29T09:39:00.500Z,1007.83
2019-05-29T09:39:59.131Z,1007.84
2019-05-29T09:40:57.919Z,1007.9
2019-05-29T09:41:56.496Z,1007.87
2019-05-29T09:42:55.100Z,1007.86
2019-05-29T09:43:58.583Z,1007.91
2019-05-29T09:44:52.388Z,1007.94
2019-05-29T09:45:51.048Z,1007.95
2019-05-29T09:46:49.842Z,1007.93
2019-05-29T09:47:48.380Z,1007.96
2019-05-29T09:48:49.933Z,1007.95
2019-05-29T09:49:45.595Z,1007.94
2019-05-29T09:50:49.865Z,1007.91
2019-05-29T09:51:42.762Z,1007.97
2019-05-29T09:52:41.640Z,1007.96
2019-05-29T09:53:40.299Z,1007.97
2019-05-29T09:54:38.863Z,1007.96
2019-05-29T09:55:37.505Z,1007.93
2019-05-29T09:56:36.055Z,1007.96
2019-05-29T09:57:34.624Z,1007.94
2019-05-29T09:58:33.231Z,1007.97
2019-05-29T09:59:31.777Z,1007.95
2019-05-29T10:02:14.858Z,1007.95
2019-05-29T10:03:13.606Z,1007.98
2019-05-29T10:04:12.177Z,1008.05
2019-05-29T10:05:10.736Z,1007.98
2019-05-29T10:06:09.672Z,1008.02
2019-05-29T10:07:08.051Z,1008.12
2019-05-29T10:08:06.600Z,1008.14
2019-05-29T10:09:05.220Z,1008.05
2019-05-29T10:10:05.096Z,1008.11
2019-05-29T10:11:08.342Z,1008.07
2019-05-29T10:12:03.927Z,1008.1
2019-05-29T10:13:00.040Z,1008.15
2019-05-29T10:13:58.787Z,1008.07
2019-05-29T10:14:57.548Z,1008.09
2019-05-29T10:15:56.909Z,1008.09
2019-05-29T10:16:56.006Z,1008.15
2019-05-29T10:17:52.782Z,1008.14
2019-05-29T10:18:51.378Z,1008.09
2019-05-29T10:19:49.935Z,1008.12
2019-05-29T10:20:48.502Z,1008.08
2019-05-29T10:21:47.029Z,1008.14
2019-05-29T10:22:45.601Z,1008.13
2019-05-29T10:23:44.197Z,1008.15
2019-05-29T10:24:42.724Z,1008.18
2019-05-29T10:25:41.500Z,1008.11
2019-05-29T10:26:40.148Z,1008.19
2019-05-29T10:27:38.693Z,1008.19
2019-05-29T10:28:49.804Z,1008.16
2019-05-29T10:29:36.116Z,1008.15
2019-05-29T10:30:34.683Z,1008.2
2019-05-29T10:31:33.293Z,1008.21
2019-05-29T10:32:32.296Z,1008.21
2019-05-29T10:33:30.848Z,1008.18
2019-05-29T10:34:29.564Z,1008.18
2019-05-29T10:35:28.139Z,1008.19
2019-05-29T10:36:26.698Z,1008.21
2019-05-29T10:37:25.265Z,1008.24
2019-05-29T10:38:23.782Z,1008.23
2019-05-29T10:39:22.315Z,1008.22
2019-05-29T10:40:20.904Z,1008.27
2019-05-29T10:41:19.743Z,1008.26
2019-05-29T10:42:20.663Z,1008.27
2019-05-29T10:43:32.992Z,1008.34
2019-05-29T10:44:15.668Z,1008.29
2019-05-29T10:45:14.357Z,1008.24
2019-05-29T10:46:13.017Z,1008.28
2019-05-29T10:47:11.727Z,1008.25
2019-05-29T10:48:10.369Z,1008.22
2019-05-29T10:49:08.894Z,1008.21
2019-05-29T10:50:07.746Z,1008.23
2019-05-29T10:51:06.348Z,1008.21
2019-05-29T10:52:14.334Z,1008.24
2019-05-29T10:53:03.462Z,1008.23
2019-05-29T10:54:02.077Z,1008.21
2019-05-29T10:55:00.600Z,1008.16
2019-05-29T10:55:59.224Z,1008.17
2019-05-29T10:56:57.875Z,1008.16
2019-05-29T10:57:56.456Z,1008.17
2019-05-29T10:58:59.444Z,1008.18
2019-05-29T10:59:54.596Z,1008.12
2019-05-29T11:00:53.361Z,1008.16
2019-05-29T11:01:51.224Z,1008.17
2019-05-29T11:02:50.025Z,1008.16
2019-05-29T11:03:49.228Z,1008.22
2019-05-29T11:04:50.461Z,1008.19
2019-05-29T11:05:45.617Z,1008.21
2019-05-29T11:06:43.798Z,1008.23
2019-05-29T11:07:42.364Z,1008.17
2019-05-29T11:08:40.913Z,1008.26
2019-05-29T11:09:44.282Z,1008.23
2019-05-29T11:10:38.281Z,1008.2
2019-05-29T11:11:36.859Z,1008.22
2019-05-29T11:12:38.987Z,1008.19
2019-05-29T11:13:34.227Z,1008.15
2019-05-29T11:14:32.845Z,1008.16
2019-05-29T11:15:31.416Z,1008.15
2019-05-29T11:16:29.985Z,1008.18
2019-05-29T11:17:28.565Z,1008.17
2019-05-29T11:18:27.251Z,1008.16
2019-05-29T11:19:26.246Z,1008.18
2019-05-29T11:20:24.480Z,1008.24
2019-05-29T11:21:23.197Z,1008.22
2019-05-29T11:22:26.025Z,1008.14
2019-05-29T11:23:20.362Z,1008.19
2019-05-29T11:24:18.971Z,1008.2
2019-05-29T11:25:23.445Z,1008.22
2019-05-29T11:26:16.068Z,1008.24
2019-05-29T11:27:14.625Z,1008.18
2019-05-29T11:28:13.180Z,1008.22
2019-05-29T11:29:11.992Z,1008.26
2019-05-29T11:30:10.550Z,1008.26
2019-05-29T11:31:09.108Z,1008.18
2019-05-29T11:32:07.725Z,1008.22
2019-05-29T11:33:06.345Z,1008.21
2019-05-29T11:34:04.989Z,1008.23
2019-05-29T11:35:03.617Z,1008.18
2019-05-29T11:36:10.487Z,1008.19
2019-05-29T11:37:00.703Z,1008.17
2019-05-29T11:37:59.260Z,1008.22
2019-05-29T11:39:02.938Z,1008.22
2019-05-29T11:39:56.823Z,1008.2
2019-05-29T11:41:19.249Z,1008.25
2019-05-29T11:41:54.731Z,1008.19
2019-05-29T11:42:52.765Z,1008.18
2019-05-29T11:43:50.925Z,1008.2
2019-05-29T11:44:50.838Z,1008.2
2019-05-29T11:45:48.267Z,1008.22
2019-05-29T11:46:46.811Z,1008.24
2019-05-29T11:47:45.374Z,1008.16
2019-05-29T11:48:43.946Z,1008.23
2019-05-29T11:49:42.500Z,1008.21
2019-05-29T11:50:41.269Z,1008.28
2019-05-29T11:51:43.972Z,1008.22
2019-05-29T11:52:42.686Z,1008.19
2019-05-29T11:53:37.333Z,1008.2
2019-05-29T11:54:35.909Z,1008.2
2019-05-29T11:55:34.504Z,1008.26
2019-05-29T11:56:33.076Z,1008.28
2019-05-29T11:57:31.640Z,1008.25
2019-05-29T11:58:31.639Z,1008.22
2019-05-29T11:59:28.935Z,1008.19
2019-05-29T12:00:27.589Z,1008.2
2019-05-29T12:01:26.255Z,1008.14
2019-05-29T12:02:24.959Z,1008.13
2019-05-29T12:03:23.660Z,1008.1
2019-05-29T12:04:26.070Z,1008.09
2019-05-29T12:05:20.957Z,1008.11
2019-05-29T12:06:19.618Z,1008.13
2019-05-29T12:07:18.185Z,1008.15
2019-05-29T12:08:16.771Z,1008.16
2019-05-29T12:09:31.248Z,1008.08
2019-05-29T12:10:14.402Z,1008.09
2019-05-29T12:11:12.754Z,1008.05
2019-05-29T12:12:11.332Z,1008.09
2019-05-29T12:13:10.004Z,1008.12